createdAt,value
2022-12-09T00:01:14.144Z,-1.70
2022-12-09T00:03:42.382Z,-1.60
2022-12-09T00:06:12.380Z,-1.60
2022-12-09T00:08:39.821Z,-1.60
2022-12-09T00:11:07.898Z,-1.50
2022-12-09T00:13:36.015Z,-1.50
2022-12-09T00:16:07.931Z,-1.50
2022-12-09T00:18:37.809Z,-1.40
2022-12-09T00:21:15.984Z,-1.50
2022-12-09T00:23:43.590Z,-1.50
2022-12-09T00:26:11.400Z,-1.40
2022-12-09T00:28:39.067Z,-1.40
2022-12-09T00:31:07.636Z,-1.40
2022-12-09T00:33:35.692Z,-1.40
2022-12-09T00:36:07.455Z,-1.40
2022-12-09T00:38:35.182Z,-1.40
2022-12-09T00:41:04.489Z,-1.40
2022-12-09T00:43:32.615Z,-1.40
2022-12-09T00:46:00.887Z,-1.40
2022-12-09T00:48:28.797Z,-1.50
2022-12-09T00:50:56.596Z,-1.50
2022-12-09T00:53:24.476Z,-1.50
2022-12-09T00:55:55.108Z,-1.40
2022-12-09T00:58:23.010Z,-1.40
2022-12-09T01:00:51.766Z,-1.30
2022-12-09T01:03:19.849Z,-1.20
2022-12-09T01:05:48.103Z,-1.20
2022-12-09T01:08:16.417Z,-1.20
2022-12-09T01:10:44.823Z,-1.10
2022-12-09T01:13:13.141Z,-1.10
2022-12-09T01:15:40.917Z,-1.00
2022-12-09T01:18:08.644Z,-1.00
2022-12-09T01:20:36.264Z,-0.90
2022-12-09T01:23:03.948Z,-0.90
2022-12-09T01:25:31.711Z,-0.90
2022-12-09T01:27:59.372Z,-0.90
2022-12-09T01:30:27.096Z,-0.90
2022-12-09T01:32:54.717Z,-0.90
2022-12-09T01:35:22.353Z,-1.00
2022-12-09T01:37:50.146Z,-1.00
2022-12-09T01:40:18.400Z,-1.10
2022-12-09T01:42:46.158Z,-1.10
2022-12-09T01:45:19.970Z,-1.20
2022-12-09T01:47:50.612Z,-1.20
2022-12-09T01:50:18.832Z,-1.30
2022-12-09T01:52:46.829Z,-1.30
2022-12-09T01:55:14.749Z,-1.40
2022-12-09T01:57:43.847Z,-1.50
2022-12-09T02:00:12.764Z,-1.60
2022-12-09T02:02:49.825Z,-1.70
2022-12-09T02:05:21.881Z,-1.80
2022-12-09T02:07:55.203Z,-1.90
2022-12-09T02:10:23.177Z,-2.00
2022-12-09T02:13:04.106Z,-2.00
2022-12-09T02:15:41.842Z,-2.10
2022-12-09T02:18:20.752Z,-2.10
2022-12-09T02:20:57.451Z,-2.20
2022-12-09T02:23:30.188Z,-2.30
2022-12-09T02:26:17.460Z,-2.40
2022-12-09T02:29:13.069Z,-2.40
2022-12-09T02:31:51.004Z,-2.50
2022-12-09T02:34:22.434Z,-2.60
2022-12-09T02:37:13.895Z,-2.60
2022-12-09T02:39:48.347Z,-2.70
2022-12-09T02:42:17.649Z,-2.80
2022-12-09T02:44:49.432Z,-2.80
2022-12-09T02:47:21.325Z,-2.90
2022-12-09T02:49:51.346Z,-3.00
2022-12-09T02:52:21.741Z,-3.00
2022-12-09T02:54:50.195Z,-3.00
2022-12-09T02:57:24.191Z,-3.00
2022-12-09T02:59:51.978Z,-3.00
2022-12-09T03:02:33.500Z,-3.10
2022-12-09T03:05:20.383Z,-3.10
2022-12-09T03:08:00.369Z,-3.20
2022-12-09T03:10:31.127Z,-3.30
2022-12-09T03:13:01.493Z,-3.30
2022-12-09T03:15:31.203Z,-3.40
2022-12-09T03:18:01.796Z,-3.50
2022-12-09T03:20:30.495Z,-3.50
2022-12-09T03:23:00.317Z,-3.60
2022-12-09T03:25:29.776Z,-3.60
2022-12-09T03:28:03.572Z,-3.70
2022-12-09T03:30:31.700Z,-3.70
2022-12-09T03:32:59.611Z,-3.80
2022-12-09T03:35:30.424Z,-3.90
2022-12-09T03:37:59.293Z,-4.00
2022-12-09T03:40:29.566Z,-4.00
2022-12-09T03:43:13.344Z,-4.10
2022-12-09T03:45:41.993Z,-4.10
2022-12-09T03:48:10.948Z,-4.20
2022-12-09T03:50:47.251Z,-4.20
2022-12-09T03:53:17.594Z,-4.10
2022-12-09T03:55:50.370Z,-4.10
2022-12-09T03:58:17.986Z,-4.10
2022-12-09T04:00:46.244Z,-4.20
2022-12-09T04:03:14.756Z,-4.30
2022-12-09T04:05:43.297Z,-4.40
2022-12-09T04:08:11.466Z,-4.50
2022-12-09T04:10:39.392Z,-4.60
2022-12-09T04:13:06.894Z,-4.70
2022-12-09T04:15:34.678Z,-4.70
2022-12-09T04:18:02.428Z,-4.80
2022-12-09T04:20:30.269Z,-4.80
2022-12-09T04:22:57.908Z,-4.80
2022-12-09T04:25:25.605Z,-4.90
2022-12-09T04:27:53.574Z,-4.90
2022-12-09T04:30:21.938Z,-5.00
2022-12-09T04:32:49.554Z,-5.00
2022-12-09T04:35:17.200Z,-5.10
2022-12-09T04:37:44.727Z,-5.10
2022-12-09T04:40:18.140Z,-5.10
2022-12-09T04:42:49.391Z,-5.10
2022-12-09T04:45:17.261Z,-5.10
2022-12-09T04:47:45.062Z,-5.20
2022-12-09T04:50:13.564Z,-5.20
2022-12-09T04:52:41.852Z,-5.30
2022-12-09T04:55:09.978Z,-5.30
2022-12-09T04:57:37.665Z,-5.40
2022-12-09T05:00:07.150Z,-5.40
2022-12-09T05:02:35.604Z,-5.50
2022-12-09T05:05:03.784Z,-5.50
2022-12-09T05:07:31.663Z,-5.50
2022-12-09T05:09:59.727Z,-5.50
2022-12-09T05:12:27.560Z,-5.60
2022-12-09T05:14:55.239Z,-5.60
2022-12-09T05:17:22.835Z,-5.60
2022-12-09T05:19:50.818Z,-5.60
2022-12-09T05:22:18.934Z,-5.70
2022-12-09T05:24:47.510Z,-5.70
2022-12-09T05:27:15.602Z,-5.70
2022-12-09T05:29:43.242Z,-5.80
2022-12-09T05:32:11.138Z,-5.80
2022-12-09T05:34:39.599Z,-5.80
2022-12-09T05:37:09.066Z,-5.80
2022-12-09T05:39:36.868Z,-5.80
2022-12-09T05:42:04.753Z,-5.90
2022-12-09T05:44:32.254Z,-5.90
2022-12-09T05:47:00.180Z,-6.00
2022-12-09T05:49:27.951Z,-5.90
2022-12-09T05:51:55.971Z,-5.80
2022-12-09T05:54:23.886Z,-5.80
2022-12-09T05:56:51.864Z,-5.80
2022-12-09T05:59:19.511Z,-5.80
2022-12-09T06:01:47.132Z,-5.90
2022-12-09T06:04:14.855Z,-5.90
2022-12-09T06:06:43.297Z,-5.70
2022-12-09T06:09:12.309Z,-5.70
2022-12-09T06:11:40.629Z,-5.70
2022-12-09T06:14:09.625Z,-5.70
2022-12-09T06:16:37.674Z,-5.80
2022-12-09T06:19:05.994Z,-5.90
2022-12-09T06:21:33.642Z,-6.00
2022-12-09T06:24:01.292Z,-6.00
2022-12-09T06:26:29.938Z,-6.00
2022-12-09T06:28:58.398Z,-6.10
2022-12-09T06:31:26.810Z,-6.20
2022-12-09T06:33:57.183Z,-6.20
2022-12-09T06:36:27.089Z,-6.30
2022-12-09T06:38:55.452Z,-6.20
2022-12-09T06:41:23.226Z,-6.20
2022-12-09T06:43:50.899Z,-6.20
2022-12-09T06:46:20.226Z,-6.20
2022-12-09T06:48:48.183Z,-6.30
2022-12-09T06:51:17.076Z,-6.30
2022-12-09T06:53:45.548Z,-6.30
2022-12-09T06:56:13.717Z,-6.30
2022-12-09T06:58:42.226Z,-6.30
2022-12-09T07:01:13.704Z,-6.30
2022-12-09T07:03:46.224Z,-6.40
2022-12-09T07:06:33.590Z,-6.40
2022-12-09T07:09:03.995Z,-6.40
2022-12-09T07:11:31.960Z,-6.50
2022-12-09T07:14:00.067Z,-6.50
2022-12-09T07:16:28.518Z,-6.50
2022-12-09T07:18:56.454Z,-6.60
2022-12-09T07:21:24.838Z,-6.70
2022-12-09T07:23:52.638Z,-6.70
2022-12-09T07:26:20.702Z,-6.80
2022-12-09T07:28:50.179Z,-6.80
2022-12-09T07:31:22.359Z,-6.80
2022-12-09T07:33:50.784Z,-6.80
2022-12-09T07:36:21.218Z,-6.90
2022-12-09T07:38:53.917Z,-6.90
2022-12-09T07:41:21.737Z,-6.90
2022-12-09T07:43:49.762Z,-6.90
2022-12-09T07:46:18.479Z,-6.90
2022-12-09T07:48:47.202Z,-7.00
2022-12-09T07:51:15.734Z,-7.00
2022-12-09T07:53:43.310Z,-7.00
2022-12-09T07:56:13.408Z,-7.00
2022-12-09T07:58:54.114Z,-7.00
2022-12-09T08:01:23.699Z,-7.00
2022-12-09T08:03:51.543Z,-7.00
2022-12-09T08:06:21.861Z,-6.90
2022-12-09T08:08:50.495Z,-6.90
2022-12-09T08:11:19.896Z,-6.90
2022-12-09T08:13:47.551Z,-6.90
2022-12-09T08:16:15.966Z,-6.90
2022-12-09T08:18:44.111Z,-6.90
2022-12-09T08:21:13.269Z,-6.90
2022-12-09T08:23:41.081Z,-6.90
2022-12-09T08:26:10.387Z,-7.00
2022-12-09T08:28:38.692Z,-7.00
2022-12-09T08:31:10.312Z,-7.00
2022-12-09T08:33:38.962Z,-7.00
2022-12-09T08:36:10.919Z,-7.00
2022-12-09T08:38:38.798Z,-7.00
2022-12-09T08:41:14.170Z,-7.00
2022-12-09T08:43:42.271Z,-7.00
2022-12-09T08:46:10.299Z,-6.90
2022-12-09T08:48:41.839Z,-6.90
2022-12-09T08:51:10.629Z,-6.90
2022-12-09T08:53:38.434Z,-6.90
2022-12-09T08:56:10.299Z,-6.80
2022-12-09T08:58:38.195Z,-6.60
2022-12-09T09:01:06.528Z,-6.60
2022-12-09T09:03:34.514Z,-6.60
2022-12-09T09:06:09.299Z,-6.50
2022-12-09T09:08:39.177Z,-6.50
2022-12-09T09:11:17.784Z,-6.50
2022-12-09T09:13:46.839Z,-6.50
2022-12-09T09:16:15.847Z,-6.40
2022-12-09T09:18:44.206Z,-6.30
2022-12-09T09:21:13.874Z,-6.10
2022-12-09T09:23:42.099Z,-6.00
2022-12-09T09:26:17.236Z,-6.00
2022-12-09T09:28:45.957Z,-5.80
2022-12-09T09:31:15.200Z,-5.70
2022-12-09T09:33:43.487Z,-5.50
2022-12-09T09:36:13.519Z,-5.50
2022-12-09T09:38:41.704Z,-5.40
2022-12-09T09:41:28.619Z,-5.40
2022-12-09T09:43:56.781Z,-5.20
2022-12-09T09:46:37.103Z,-5.10
2022-12-09T09:49:07.688Z,-5.10
2022-12-09T09:51:35.835Z,-5.00
2022-12-09T09:54:08.395Z,-4.90
2022-12-09T09:56:45.914Z,-4.80
2022-12-09T09:59:37.484Z,-4.70
2022-12-09T10:02:08.637Z,-4.60
2022-12-09T10:05:03.299Z,-4.50
2022-12-09T10:07:41.232Z,-4.40
2022-12-09T10:10:28.549Z,-4.30
2022-12-09T10:13:08.138Z,-4.10
2022-12-09T10:15:41.903Z,-4.00
2022-12-09T10:18:16.091Z,-3.80
2022-12-09T10:20:44.337Z,-3.60
2022-12-09T10:23:16.345Z,-3.30
2022-12-09T10:25:52.893Z,-3.20
2022-12-09T10:31:33.647Z,-3.00
2022-12-09T10:34:01.992Z,-2.80
2022-12-09T10:36:35.509Z,-2.70
2022-12-09T10:39:05.251Z,-2.60
2022-12-09T10:42:01.540Z,-2.50
2022-12-09T10:44:29.653Z,-2.40
2022-12-09T10:47:05.222Z,-2.30
2022-12-09T10:49:36.812Z,-2.10
2022-12-09T10:52:07.113Z,-2.00
2022-12-09T10:54:40.920Z,-1.90
2022-12-09T10:57:11.682Z,-1.80
2022-12-09T10:59:40.261Z,-1.70
2022-12-09T11:02:08.007Z,-1.60
2022-12-09T11:04:37.513Z,-1.50
2022-12-09T11:07:15.079Z,-1.40
2022-12-09T11:09:47.973Z,-1.30
2022-12-09T11:12:40.196Z,-1.20
2022-12-09T11:15:11.873Z,-1.10
2022-12-09T11:17:42.483Z,-0.90
2022-12-09T11:20:11.493Z,-0.70
2022-12-09T11:22:41.197Z,-0.50
2022-12-09T11:25:12.904Z,-0.40
2022-12-09T11:28:01.320Z,-0.20
2022-12-09T11:30:32.045Z,-0.10
2022-12-09T11:33:20.455Z,0.00
2022-12-09T11:35:48.517Z,0.10
2022-12-09T11:38:28.451Z,0.30
2022-12-09T11:40:59.339Z,0.30
2022-12-09T11:43:45.597Z,0.40
2022-12-09T11:46:13.107Z,0.40
2022-12-09T11:48:43.971Z,0.40
2022-12-09T11:51:29.077Z,0.50
2022-12-09T11:54:03.685Z,0.60
2022-12-09T11:56:32.614Z,0.70
2022-12-09T11:59:00.103Z,0.80
2022-12-09T12:01:46.432Z,0.90
2022-12-09T12:04:20.175Z,1.00
2022-12-09T12:06:49.584Z,1.00
2022-12-09T12:09:23.930Z,1.10
2022-12-09T12:11:57.388Z,1.20
2022-12-09T12:14:27.706Z,1.20
2022-12-09T12:17:14.065Z,1.20
2022-12-09T12:19:42.483Z,1.20
2022-12-09T12:22:09.850Z,1.10
2022-12-09T12:24:55.533Z,1.10
2022-12-09T12:27:29.234Z,1.10
2022-12-09T12:30:04.931Z,1.00
2022-12-09T12:33:17.915Z,1.00
2022-12-09T12:36:02.642Z,0.90
2022-12-09T12:38:37.025Z,0.90
2022-12-09T12:41:07.601Z,0.80
2022-12-09T12:43:53.824Z,0.70
2022-12-09T12:46:24.486Z,0.70
2022-12-09T12:48:51.905Z,0.70
2022-12-09T12:51:38.394Z,0.70
2022-12-09T12:54:15.743Z,0.70
2022-12-09T12:56:52.542Z,0.70
2022-12-09T12:59:23.010Z,0.70
2022-12-09T13:01:54.742Z,0.70
2022-12-09T13:04:22.335Z,0.80
2022-12-09T13:06:54.318Z,0.80
2022-12-09T13:09:24.657Z,0.80
2022-12-09T13:11:55.337Z,0.90
2022-12-09T13:14:27.014Z,1.00
2022-12-09T13:16:54.552Z,1.00
2022-12-09T13:19:24.593Z,1.10
2022-12-09T13:21:52.096Z,1.20
2022-12-09T13:24:27.184Z,1.30
2022-12-09T13:27:04.045Z,1.40
2022-12-09T13:29:37.626Z,1.50
2022-12-09T13:32:23.952Z,1.60
2022-12-09T13:34:54.621Z,1.70
2022-12-09T13:37:55.181Z,1.80
2022-12-09T13:40:30.923Z,1.90
2022-12-09T13:43:04.510Z,2.00
2022-12-09T13:45:44.357Z,2.10
2022-12-09T13:48:16.650Z,2.20
2022-12-09T13:50:44.826Z,2.20
2022-12-09T13:53:24.077Z,2.30
2022-12-09T13:55:53.957Z,2.30
2022-12-09T13:58:40.267Z,2.30
2022-12-09T14:01:16.872Z,2.30
2022-12-09T14:04:01.507Z,2.30
2022-12-09T14:06:28.939Z,2.20
2022-12-09T14:08:58.785Z,2.20
2022-12-09T14:11:38.526Z,2.10
2022-12-09T14:14:24.963Z,2.10
2022-12-09T14:16:56.287Z,2.00
2022-12-09T14:19:23.662Z,1.90
2022-12-09T14:22:16.163Z,1.80
2022-12-09T14:24:44.177Z,1.80
2022-12-09T14:27:16.261Z,1.70
2022-12-09T14:29:44.992Z,1.60
2022-12-09T14:32:24.809Z,1.70
2022-12-09T14:35:12.441Z,1.70
2022-12-09T14:37:48.639Z,1.70
2022-12-09T14:40:19.286Z,1.70
2022-12-09T14:42:55.506Z,1.80
2022-12-09T14:45:23.033Z,1.80
2022-12-09T14:47:50.892Z,1.90
2022-12-09T14:50:22.497Z,2.00
2022-12-09T14:52:52.052Z,2.10
2022-12-09T14:55:20.449Z,2.20
2022-12-09T14:57:48.087Z,2.30
2022-12-09T15:00:44.010Z,2.30
2022-12-09T15:03:42.984Z,2.40
2022-12-09T15:06:12.135Z,2.30
2022-12-09T15:08:40.876Z,2.30
2022-12-09T15:11:09.924Z,2.20
2022-12-09T15:13:38.654Z,2.20
2022-12-09T15:16:10.368Z,2.10
2022-12-09T15:18:38.969Z,2.00
2022-12-09T15:21:07.009Z,1.90
2022-12-09T15:23:34.690Z,1.80
2022-12-09T15:26:04.461Z,1.80
2022-12-09T15:28:34.317Z,1.80
2022-12-09T15:31:07.152Z,1.70
2022-12-09T15:34:02.976Z,1.70
2022-12-09T15:36:38.938Z,1.70
2022-12-09T15:56:15.350Z,1.30
2022-12-09T15:58:44.604Z,1.10
2022-12-09T23:43:16.215Z,-1.50
2022-12-09T23:45:44.106Z,-1.50
2022-12-09T23:48:12.202Z,-1.40
2022-12-09T23:50:40.389Z,-1.40
2022-12-09T23:53:07.981Z,-1.40
2022-12-09T23:55:35.418Z,-1.40
2022-12-09T23:58:02.864Z,-1.40
